^^
Grace C. Lehan Memorial Weather Station Historical Data
Daily Summary for February 25, 2021 Units:  Both    English   Metric
Daily Weekly Monthly Yearly
  High: Low: Average:
Temperature: 75.1 °F /  23.9 °C 52.3 °F /  11.3 °C 63.5 °F /  17.5 °C
Dew Point: 60.9 °F /  16.1 °C 50.9 °F /  10.5 °C 56.6 °F /  13.7 °C
Humidity: 96% 52% 80%
Wind Speed: 1.6mph /  2.6km/h - 0.1mph /  0.2km/h
Wind Gust: 6mph /  9.7km/h - -
Wind- - SE
Pressure: 30.05 in /  1017.5 hPa 29.84 in /  1010.4 hPa -
Precipitation: 0.00 in /  0 mm    
 
 
Tabular Data for February 25, 2021
Time Temperature Dew Point Pressure Wind Wind Speed Wind Gust Humidity Rainfall Rate (Hourly) solar
00:00 58.7 °F /  14.8 °C 55.8 °F /  13.2 °C 30.01in /  1016.1hPa Calm     90% 0.00in /  0mm 0 W/m2
00:09 58.8 °F /  14.9 °C 55.8 °F /  13.2 °C 30.01in /  1016.1hPa Calm     90% 0.00in /  0mm 0 W/m2
00:14 58.7 °F /  14.8 °C 55.8 °F /  13.2 °C 30.02in /  1016.5hPa Calm     90% 0.00in /  0mm 0 W/m2
00:19 58.7 °F /  14.8 °C 55.8 °F /  13.2 °C 30.02in /  1016.5hPa Calm     90% 0.00in /  0mm 0 W/m2
00:24 58.7 °F /  14.8 °C 55.5 °F /  13.1 °C 30.03in /  1016.8hPa Calm     89.1% 0.00in /  0mm 0 W/m2
00:29 58.7 °F /  14.8 °C 55.5 °F /  13.1 °C 30.03in /  1016.8hPa Calm     89% 0.00in /  0mm 0 W/m2
00:34 58.6 °F /  14.8 °C 55.4 °F /  13 °C 30.03in /  1016.8hPa Calm     89% 0.00in /  0mm 0 W/m2
00:39 58.6 °F /  14.8 °C 55.4 °F /  13 °C 30.03in /  1016.8hPa Calm   1mph /  1.6km/h 89.2% 0.00in /  0mm 0 W/m2
00:44 58.4 °F /  14.7 °C 55.5 °F /  13.1 °C 30.03in /  1016.8hPa Calm   1mph /  1.6km/h 90% 0.00in /  0mm 0 W/m2
00:49 58.4 °F /  14.7 °C 55.4 °F /  13 °C 30.04in /  1017.2hPa Calm   1mph /  1.6km/h 90% 0.00in /  0mm 0 W/m2
00:54 58.2 °F /  14.6 °C 55.3 °F /  12.9 °C 30.04in /  1017.2hPa Calm   1mph /  1.6km/h 90% 0.00in /  0mm 0 W/m2
00:59 58.2 °F /  14.6 °C 55.6 °F /  13.1 °C 30.04in /  1017.2hPa Calm   1mph /  1.6km/h 91% 0.00in /  0mm 0 W/m2
01:04 58.2 °F /  14.6 °C 55.6 °F /  13.1 °C 30.04in /  1017.2hPa Calm   1mph /  1.6km/h 91% 0.00in /  0mm 0 W/m2
01:09 58.1 °F /  14.5 °C 55.5 °F /  13.1 °C 30.04in /  1017.2hPa Calm     91% 0.00in /  0mm 0 W/m2
01:14 58 °F /  14.4 °C 55.4 °F /  13 °C 30.03in /  1016.8hPa Calm     91% 0.00in /  0mm 0 W/m2
01:19 58 °F /  14.4 °C 55.4 °F /  13 °C 30.03in /  1016.8hPa Calm     91% 0.00in /  0mm 0 W/m2
01:24 57.9 °F /  14.4 °C 55.2 °F /  12.9 °C 30.03in /  1016.8hPa Calm     91% 0.00in /  0mm 0 W/m2
01:29 57.7 °F /  14.3 °C 55.1 °F /  12.8 °C 30.03in /  1016.8hPa Calm     91% 0.00in /  0mm 0 W/m2
01:34 57.6 °F /  14.2 °C 55.1 °F /  12.8 °C 30.03in /  1016.8hPa Calm     91.5% 0.00in /  0mm 0 W/m2
01:39 57.4 °F /  14.1 °C 55 °F /  12.8 °C 30.03in /  1016.8hPa Calm     91.8% 0.00in /  0mm 0 W/m2
01:44 57.2 °F /  14 °C 54.9 °F /  12.7 °C 30.03in /  1016.8hPa Calm   1mph /  1.6km/h 91.8% 0.00in /  0mm 0 W/m2
01:49 57.1 °F /  13.9 °C 54.8 °F /  12.7 °C 30.03in /  1016.8hPa Calm   1mph /  1.6km/h 92% 0.00in /  0mm 0 W/m2
01:54 57 °F /  13.9 °C 54.7 °F /  12.6 °C 30.03in /  1016.8hPa Calm   1mph /  1.6km/h 92% 0.00in /  0mm 0 W/m2
01:59 56.9 °F /  13.8 °C 54.6 °F /  12.6 °C 30.03in /  1016.8hPa Calm   1mph /  1.6km/h 92% 0.00in /  0mm 0 W/m2
02:04 56.8 °F /  13.8 °C 54.5 °F /  12.5 °C 30.03in /  1016.8hPa Calm   1mph /  1.6km/h 92% 0.00in /  0mm 0 W/m2
02:09 56.7 °F /  13.7 °C 54.4 °F /  12.4 °C 30.03in /  1016.8hPa Calm     92% 0.00in /  0mm 0 W/m2
02:14 56.6 °F /  13.7 °C 54.6 °F /  12.6 °C 30.03in /  1016.8hPa Calm     93% 0.00in /  0mm 0 W/m2
02:19 56.4 °F /  13.6 °C 54.4 °F /  12.4 °C 30.03in /  1016.8hPa Calm     93% 0.00in /  0mm 0 W/m2
02:24 56.3 °F /  13.5 °C 54.1 °F /  12.3 °C 30.03in /  1016.8hPa Calm     92.4% 0.00in /  0mm 0 W/m2
02:29 56.2 °F /  13.4 °C 54.1 °F /  12.3 °C 30.03in /  1016.8hPa Calm     92.8% 0.00in /  0mm 0 W/m2
02:34 56 °F /  13.3 °C 54 °F /  12.2 °C 30.03in /  1016.8hPa Calm     93% 0.00in /  0mm 0 W/m2
02:39 55.9 °F /  13.3 °C 53.9 °F /  12.2 °C 30.03in /  1016.8hPa Calm     93% 0.00in /  0mm 0 W/m2
02:44 55.8 °F /  13.2 °C 53.8 °F /  12.1 °C 30.03in /  1016.8hPa Calm     93% 0.00in /  0mm 0 W/m2
02:49 55.8 °F /  13.2 °C 53.8 °F /  12.1 °C 30.03in /  1016.8hPa Calm     93% 0.00in /  0mm 0 W/m2
02:54 55.7 °F /  13.2 °C 53.7 °F /  12.1 °C 30.03in /  1016.8hPa Calm     93% 0.00in /  0mm 0 W/m2
02:59 55.6 °F /  13.1 °C 53.6 °F /  12 °C 30.03in /  1016.8hPa Calm     93% 0.00in /  0mm 0 W/m2
03:04 55.5 °F /  13.1 °C 53.5 °F /  11.9 °C 30.02in /  1016.5hPa Calm     93% 0.00in /  0mm 0 W/m2
03:09 55.3 °F /  12.9 °C 53.3 °F /  11.8 °C 30.02in /  1016.5hPa Calm     93% 0.00in /  0mm 0 W/m2
03:14 55.3 °F /  12.9 °C 53.4 °F /  11.9 °C 30.02in /  1016.5hPa Calm     93.2% 0.00in /  0mm 0 W/m2
03:19 55.2 °F /  12.9 °C 53.5 °F /  11.9 °C 30.03in /  1016.8hPa Calm     93.8% 0.00in /  0mm 0 W/m2
03:24 55.2 °F /  12.9 °C 53.5 °F /  11.9 °C 30.03in /  1016.8hPa Calm     94% 0.00in /  0mm 0 W/m2
03:29 55.1 °F /  12.8 °C 53.4 °F /  11.9 °C 30.02in /  1016.5hPa Calm     94% 0.00in /  0mm 0 W/m2
03:34 55 °F /  12.8 °C 53.3 °F /  11.8 °C 30.02in /  1016.5hPa Calm     94% 0.00in /  0mm 0 W/m2
03:39 54.9 °F /  12.7 °C 53.2 °F /  11.8 °C 30.02in /  1016.5hPa Calm     94% 0.00in /  0mm 0 W/m2
03:44 54.9 °F /  12.7 °C 53.2 °F /  11.8 °C 30.02in /  1016.5hPa Calm     94% 0.00in /  0mm 0 W/m2
03:49 54.8 °F /  12.7 °C 53.1 °F /  11.7 °C 30.02in /  1016.5hPa Calm     94% 0.00in /  0mm 0 W/m2
03:54 54.8 °F /  12.7 °C 53.1 °F /  11.7 °C 30.02in /  1016.5hPa Calm     94% 0.00in /  0mm 0 W/m2
03:59 54.7 °F /  12.6 °C 53 °F /  11.7 °C 30.03in /  1016.8hPa Calm     94% 0.00in /  0mm 0 W/m2
04:00 54.7 °F /  12.6 °C 53 °F /  11.7 °C 30.02in /  1016.5hPa Calm     94% 0.00in /  0mm 0 W/m2
04:09 54.5 °F /  12.5 °C 52.9 °F /  11.6 °C 30.03in /  1016.8hPa Calm     94% 0.00in /  0mm 0 W/m2
04:14 54.5 °F /  12.5 °C 52.8 °F /  11.6 °C 30.03in /  1016.8hPa Calm     94% 0.00in /  0mm 0 W/m2
04:19 54.4 °F /  12.4 °C 52.7 °F /  11.5 °C 30.03in /  1016.8hPa Calm     94% 0.00in /  0mm 0 W/m2
04:24 54.3 °F /  12.4 °C 52.6 °F /  11.4 °C 30.03in /  1016.8hPa Calm     94% 0.00in /  0mm 0 W/m2
04:29 54.3 °F /  12.4 °C 52.6 °F /  11.4 °C 30.03in /  1016.8hPa Calm     94% 0.00in /  0mm 0 W/m2
04:34 54.2 °F /  12.3 °C 52.5 °F /  11.4 °C 30.03in /  1016.8hPa Calm     94% 0.00in /  0mm 0 W/m2
04:39 54.2 °F /  12.3 °C 52.5 °F /  11.4 °C 30.03in /  1016.8hPa Calm     94% 0.00in /  0mm 0 W/m2
04:44 54.1 °F /  12.3 °C 52.4 °F /  11.3 °C 30.03in /  1016.8hPa Calm     94% 0.00in /  0mm 0 W/m2
04:49 54 °F /  12.2 °C 52.3 °F /  11.3 °C 30.03in /  1016.8hPa Calm     94% 0.00in /  0mm 0 W/m2
04:54 53.9 °F /  12.2 °C 52.2 °F /  11.2 °C 30.03in /  1016.8hPa Calm     94% 0.00in /  0mm 0 W/m2
04:59 53.8 °F /  12.1 °C 52.2 °F /  11.2 °C 30.03in /  1016.8hPa Calm     94% 0.00in /  0mm 0 W/m2
05:04 53.7 °F /  12.1 °C 52.1 °F /  11.2 °C 30.03in /  1016.8hPa Calm     94% 0.00in /  0mm 0 W/m2
05:09 53.6 °F /  12 °C 52 °F /  11.1 °C 30.03in /  1016.8hPa Calm     94.2% 0.00in /  0mm 0 W/m2
05:14 53.6 °F /  12 °C 51.9 °F /  11.1 °C 30.03in /  1016.8hPa Calm     94% 0.00in /  0mm 0 W/m2
05:19 53.5 °F /  11.9 °C 51.8 °F /  11 °C 30.03in /  1016.8hPa Calm     94% 0.00in /  0mm 0 W/m2
05:24 53.5 °F /  11.9 °C 51.8 °F /  11 °C 30.03in /  1016.8hPa Calm     94% 0.00in /  0mm 0 W/m2
05:29 53.4 °F /  11.9 °C 52 °F /  11.1 °C 30.03in /  1016.8hPa Calm     95% 0.00in /  0mm 0 W/m2
05:34 53.3 °F /  11.8 °C 51.9 °F /  11.1 °C 30.03in /  1016.8hPa Calm     95% 0.00in /  0mm 0 W/m2
05:39 53.2 °F /  11.8 °C 51.8 °F /  11 °C 30.03in /  1016.8hPa Calm     95% 0.00in /  0mm 0 W/m2
05:44 53.2 °F /  11.8 °C 51.8 °F /  11 °C 30.03in /  1016.8hPa Calm     95% 0.00in /  0mm 0 W/m2
05:49 53.1 °F /  11.7 °C 51.7 °F /  10.9 °C 30.03in /  1016.8hPa Calm     94.9% 0.00in /  0mm 0 W/m2
05:54 52.9 °F /  11.6 °C 51.2 °F /  10.7 °C 30.03in /  1016.8hPa Calm     94% 0.00in /  0mm 0 W/m2
05:59 52.8 °F /  11.6 °C 51.1 °F /  10.6 °C 30.03in /  1016.8hPa Calm     94% 0.00in /  0mm 0 W/m2
06:04 52.7 °F /  11.5 °C 51.3 °F /  10.7 °C 30.03in /  1016.8hPa Calm     95% 0.00in /  0mm 0 W/m2
06:09 52.6 °F /  11.4 °C 51.2 °F /  10.7 °C 30.03in /  1016.8hPa Calm     95% 0.00in /  0mm 0 W/m2
06:14 52.5 °F /  11.4 °C 51.2 °F /  10.7 °C 30.04in /  1017.2hPa Calm     95% 0.00in /  0mm 0 W/m2
06:19 52.5 °F /  11.4 °C 51.1 °F /  10.6 °C 30.04in /  1017.2hPa Calm     95% 0.00in /  0mm 0 W/m2
06:24 52.4 °F /  11.3 °C 51 °F /  10.6 °C 30.04in /  1017.2hPa Calm     95% 0.00in /  0mm 0 W/m2
06:29 52.4 °F /  11.3 °C 51 °F /  10.6 °C 30.04in /  1017.2hPa Calm     95% 0.00in /  0mm 0 W/m2
06:34 52.4 °F /  11.3 °C 51 °F /  10.6 °C 30.04in /  1017.2hPa Calm     95% 0.00in /  0mm 0 W/m2
06:39 52.3 °F /  11.3 °C 51 °F /  10.6 °C 30.03in /  1016.8hPa Calm     95% 0.00in /  0mm 0 W/m2
06:44 52.3 °F /  11.3 °C 50.9 °F /  10.5 °C 30.03in /  1016.8hPa Calm     95% 0.00in /  0mm 0 W/m2
06:49 52.3 °F /  11.3 °C 50.9 °F /  10.5 °C 30.03in /  1016.8hPa Calm     95% 0.00in /  0mm 0 W/m2
06:54 52.3 °F /  11.3 °C 50.9 °F /  10.5 °C 30.03in /  1016.8hPa West 0.1mph /  0.2km/h 2mph /  3.2km/h 95% 0.00in /  0mm 5 W/m2
06:59 52.3 °F /  11.3 °C 50.9 °F /  10.5 °C 30.03in /  1016.8hPa Calm   2mph /  3.2km/h 95% 0.00in /  0mm 7 W/m2
07:04 52.3 °F /  11.3 °C 50.9 °F /  10.5 °C 30.04in /  1017.2hPa Calm   2mph /  3.2km/h 95% 0.00in /  0mm 9 W/m2
07:09 52.3 °F /  11.3 °C 50.9 °F /  10.5 °C 30.04in /  1017.2hPa Calm     95% 0.00in /  0mm 9 W/m2
07:14 52.3 °F /  11.3 °C 50.9 °F /  10.5 °C 30.04in /  1017.2hPa Calm     95% 0.00in /  0mm 11 W/m2
07:19 52.5 °F /  11.4 °C 51.1 °F /  10.6 °C 30.04in /  1017.2hPa Calm     95% 0.00in /  0mm 11 W/m2
07:24 52.6 °F /  11.4 °C 51.3 °F /  10.7 °C 30.04in /  1017.2hPa Calm     95.1% 0.00in /  0mm 12 W/m2
07:29 52.8 °F /  11.6 °C 51.6 °F /  10.9 °C 30.04in /  1017.2hPa Calm     96% 0.00in /  0mm 14 W/m2
07:34 52.8 °F /  11.6 °C 51.7 °F /  10.9 °C 30.04in /  1017.2hPa Calm     96% 0.00in /  0mm 18 W/m2
07:39 53 °F /  11.7 °C 51.9 °F /  11.1 °C 30.04in /  1017.2hPa Calm     96% 0.00in /  0mm 18 W/m2
07:44 53.1 °F /  11.7 °C 52 °F /  11.1 °C 30.05in /  1017.5hPa Calm     96% 0.00in /  0mm 21 W/m2
07:49 53.2 °F /  11.8 °C 52.1 °F /  11.2 °C 30.05in /  1017.5hPa Calm     96% 0.00in /  0mm 16 W/m2
07:54 53.5 °F /  11.9 °C 52.4 °F /  11.3 °C 30.04in /  1017.2hPa Calm     96% 0.00in /  0mm 16 W/m2
07:59 53.7 °F /  12.1 °C 52.6 °F /  11.4 °C 30.04in /  1017.2hPa Calm     96% 0.00in /  0mm 18 W/m2
08:09 54.1 °F /  12.3 °C 53 °F /  11.7 °C 30.04in /  1017.2hPa Calm     96% 0.00in /  0mm 37 W/m2
08:14 54.4 °F /  12.4 °C 53.3 °F /  11.8 °C 30.04in /  1017.2hPa West 0.2mph /  0.3km/h 2mph /  3.2km/h 96% 0.00in /  0mm 21 W/m2
08:19 54.6 °F /  12.6 °C 53.5 °F /  11.9 °C 30.04in /  1017.2hPa Calm   2mph /  3.2km/h 96% 0.00in /  0mm 23 W/m2
08:24 54.9 °F /  12.7 °C 53.8 °F /  12.1 °C 30.04in /  1017.2hPa Calm   2mph /  3.2km/h 96% 0.00in /  0mm 25 W/m2
08:29 55.1 °F /  12.8 °C 54 °F /  12.2 °C 30.04in /  1017.2hPa West 0.1mph /  0.2km/h 2mph /  3.2km/h 96% 0.00in /  0mm 28 W/m2
08:34 55.3 °F /  12.9 °C 54.2 °F /  12.3 °C 30.04in /  1017.2hPa West 0.1mph /  0.2km/h 2mph /  3.2km/h 96% 0.00in /  0mm 37 W/m2
08:39 55.6 °F /  13.1 °C 54.5 °F /  12.5 °C 30.04in /  1017.2hPa Calm   2mph /  3.2km/h 96% 0.00in /  0mm 39 W/m2
08:44 55.9 °F /  13.3 °C 54.6 °F /  12.6 °C 30.04in /  1017.2hPa Calm   2mph /  3.2km/h 95.4% 0.00in /  0mm 47 W/m2
08:49 56.2 °F /  13.4 °C 54.8 °F /  12.7 °C 30.04in /  1017.2hPa Calm   2mph /  3.2km/h 95% 0.00in /  0mm 51 W/m2
08:54 56.7 °F /  13.7 °C 55.1 °F /  12.8 °C 30.04in /  1017.2hPa NNE 0.6mph /  1km/h 5mph /  8km/h 94.5% 0.00in /  0mm 56 W/m2
08:59 57.1 °F /  13.9 °C 55.4 °F /  13 °C 30.04in /  1017.2hPa ENE 0.2mph /  0.3km/h 5mph /  8km/h 94% 0.00in /  0mm 350 W/m2
09:04 57.6 °F /  14.2 °C 55.6 °F /  13.1 °C 30.03in /  1016.8hPa Calm   5mph /  8km/h 93% 0.00in /  0mm 394 W/m2
09:09 58.4 °F /  14.7 °C 56.4 °F /  13.6 °C 30.03in /  1016.8hPa NE 0.1mph /  0.2km/h 2mph /  3.2km/h 93% 0.00in /  0mm 413 W/m2
09:14 59.4 °F /  15.2 °C 57 °F /  13.9 °C 30.03in /  1016.8hPa NE 1.1mph /  1.8km/h 4mph /  6.4km/h 92% 0.00in /  0mm 438 W/m2
09:19 60.5 °F /  15.8 °C 57.2 °F /  14 °C 30.03in /  1016.8hPa Calm   4mph /  6.4km/h 88.9% 0.00in /  0mm 459 W/m2
09:24 61.6 °F /  16.4 °C 57.8 °F /  14.3 °C 30.03in /  1016.8hPa NE 0.1mph /  0.2km/h 4mph /  6.4km/h 87.5% 0.00in /  0mm 480 W/m2
09:29 62.8 °F /  17.1 °C 58.7 °F /  14.8 °C 30.03in /  1016.8hPa Calm   4mph /  6.4km/h 86.5% 0.00in /  0mm 504 W/m2
09:34 63.9 °F /  17.7 °C 58.8 °F /  14.9 °C 30.03in /  1016.8hPa ENE 1.5mph /  2.4km/h 5mph /  8km/h 83.5% 0.00in /  0mm 524 W/m2
09:39 64.6 °F /  18.1 °C 58.3 °F /  14.6 °C 30.03in /  1016.8hPa Calm   5mph /  8km/h 80.1% 0.00in /  0mm 540 W/m2
09:44 65.2 °F /  18.4 °C 59.2 °F /  15.1 °C 30.03in /  1016.8hPa ENE 0.1mph /  0.2km/h 5mph /  8km/h 80.7% 0.00in /  0mm 555 W/m2
09:49 66.1 °F /  18.9 °C 59.3 °F /  15.2 °C 30.03in /  1016.8hPa ENE 0.3mph /  0.5km/h 5mph /  8km/h 78.6% 0.00in /  0mm 570 W/m2
09:54 67 °F /  19.4 °C 59.2 °F /  15.1 °C 30.03in /  1016.8hPa ENE 0.1mph /  0.2km/h 5mph /  8km/h 76.1% 0.00in /  0mm 578 W/m2
09:59 67.6 °F /  19.8 °C 59.9 °F /  15.5 °C 30.02in /  1016.5hPa ENE 0.5mph /  0.8km/h 5mph /  8km/h 76.2% 0.00in /  0mm 592 W/m2
10:04 68.2 °F /  20.1 °C 60 °F /  15.6 °C 30.02in /  1016.5hPa Calm   5mph /  8km/h 75.1% 0.00in /  0mm 605 W/m2
10:09 68.7 °F /  20.4 °C 59.4 °F /  15.2 °C 30.02in /  1016.5hPa Calm     72.3% 0.00in /  0mm 613 W/m2
10:14 68.7 °F /  20.4 °C 58.6 °F /  14.8 °C 30.02in /  1016.5hPa NE 0.4mph /  0.6km/h 3mph /  4.8km/h 70% 0.00in /  0mm 626 W/m2
10:19 68.8 °F /  20.4 °C 58.7 °F /  14.8 °C 30.02in /  1016.5hPa NE 0.7mph /  1.1km/h 4mph /  6.4km/h 70.3% 0.00in /  0mm 635 W/m2
10:24 69 °F /  20.6 °C 59.3 °F /  15.2 °C 30.02in /  1016.5hPa NE 0.1mph /  0.2km/h 4mph /  6.4km/h 71.3% 0.00in /  0mm 647 W/m2
10:29 69.5 °F /  20.8 °C 59.9 °F /  15.5 °C 30.02in /  1016.5hPa North 0.6mph /  1km/h 5mph /  8km/h 71.4% 0.00in /  0mm 656 W/m2
10:34 70.1 °F /  21.2 °C 60.2 °F /  15.7 °C 30.02in /  1016.5hPa NNW 0.2mph /  0.3km/h 5mph /  8km/h 70.8% 0.00in /  0mm 666 W/m2
10:39 70.7 °F /  21.5 °C 60.2 °F /  15.7 °C 30.02in /  1016.5hPa NNE 0.3mph /  0.5km/h 3mph /  4.8km/h 69.3% 0.00in /  0mm 679 W/m2
10:44 71 °F /  21.7 °C 59.8 °F /  15.4 °C 30.02in /  1016.5hPa Calm   3mph /  4.8km/h 67.7% 0.00in /  0mm 687 W/m2
10:49 71.1 °F /  21.7 °C 59.7 °F /  15.4 °C 30.02in /  1016.5hPa East 0.3mph /  0.5km/h 3mph /  4.8km/h 67.3% 0.00in /  0mm 698 W/m2
10:54 71.1 °F /  21.7 °C 59.5 °F /  15.3 °C 30.02in /  1016.5hPa North 0.7mph /  1.1km/h 4mph /  6.4km/h 66.8% 0.00in /  0mm 707 W/m2
10:59 71.4 °F /  21.9 °C 59.9 °F /  15.5 °C 30.02in /  1016.5hPa NNW 0.3mph /  0.5km/h 4mph /  6.4km/h 67.2% 0.00in /  0mm 717 W/m2
11:04 71.8 °F /  22.1 °C 60 °F /  15.6 °C 30.01in /  1016.1hPa NNW 0.1mph /  0.2km/h 4mph /  6.4km/h 66.5% 0.00in /  0mm 724 W/m2
11:09 72.1 °F /  22.3 °C 59.4 °F /  15.2 °C 30.01in /  1016.1hPa East 0.8mph /  1.3km/h 5mph /  8km/h 64.5% 0.00in /  0mm 731 W/m2
11:14 72.1 °F /  22.3 °C 58.5 °F /  14.7 °C 30.01in /  1016.1hPa Calm   5mph /  8km/h 62.3% 0.00in /  0mm 740 W/m2
11:19 72.2 °F /  22.3 °C 59.1 °F /  15.1 °C 30.01in /  1016.1hPa ENE 1.1mph /  1.8km/h 6mph /  9.7km/h 63.3% 0.00in /  0mm 747 W/m2
11:24 72.4 °F /  22.4 °C 59.2 °F /  15.1 °C 30.01in /  1016.1hPa Calm   6mph /  9.7km/h 63.3% 0.00in /  0mm 754 W/m2
11:29 72.6 °F /  22.6 °C 60.1 °F /  15.6 °C 30.01in /  1016.1hPa Calm   6mph /  9.7km/h 64.8% 0.00in /  0mm 756 W/m2
11:34 73 °F /  22.8 °C 60.9 °F /  16.1 °C 30.00in /  1015.8hPa North 0.6mph /  1km/h 6mph /  9.7km/h 66% 0.00in /  0mm 654 W/m2
11:39 73.4 °F /  23 °C 60.4 °F /  15.8 °C 30.00in /  1015.8hPa North 0.3mph /  0.5km/h 3mph /  4.8km/h 63.9% 0.00in /  0mm 555 W/m2
11:44 73.6 °F /  23.1 °C 60.5 °F /  15.8 °C 30.00in /  1015.8hPa North 0.1mph /  0.2km/h 3mph /  4.8km/h 63.6% 0.00in /  0mm 281 W/m2
11:49 73.4 °F /  23 °C 59.5 °F /  15.3 °C 30.00in /  1015.8hPa North 1.1mph /  1.8km/h 6mph /  9.7km/h 61.7% 0.00in /  0mm 158 W/m2
11:54 72.9 °F /  22.7 °C 58.8 °F /  14.9 °C 30.00in /  1015.8hPa NW 0.8mph /  1.3km/h 6mph /  9.7km/h 61.3% 0.00in /  0mm 142 W/m2
11:59 72.7 °F /  22.6 °C 59.2 °F /  15.1 °C 29.99in /  1015.5hPa NE 0.3mph /  0.5km/h 6mph /  9.7km/h 62.6% 0.00in /  0mm 151 W/m2
12:00 72.7 °F /  22.6 °C 59.8 °F /  15.4 °C 29.99in /  1015.5hPa Calm   6mph /  9.7km/h 64% 0.00in /  0mm 83 W/m2
12:09 72.2 °F /  22.3 °C 59.3 °F /  15.2 °C 29.99in /  1015.5hPa NE 0.8mph /  1.3km/h 4mph /  6.4km/h 63.9% 0.00in /  0mm 44 W/m2
12:14 72.2 °F /  22.3 °C 58.8 °F /  14.9 °C 29.99in /  1015.5hPa NE 0.2mph /  0.3km/h 4mph /  6.4km/h 62.9% 0.00in /  0mm 104 W/m2
12:19 72.1 °F /  22.3 °C 58.4 °F /  14.7 °C 29.99in /  1015.5hPa NE 0.4mph /  0.6km/h 4mph /  6.4km/h 62.2% 0.00in /  0mm 90 W/m2
12:24 72 °F /  22.2 °C 58.1 °F /  14.5 °C 29.98in /  1015.1hPa NE 0.4mph /  0.6km/h 4mph /  6.4km/h 61.7% 0.00in /  0mm 464 W/m2
12:29 72 °F /  22.2 °C 58.2 °F /  14.6 °C 29.98in /  1015.1hPa ENE 0.4mph /  0.6km/h 4mph /  6.4km/h 61.7% 0.00in /  0mm 366 W/m2
12:34 72.1 °F /  22.3 °C 57.7 °F /  14.3 °C 29.98in /  1015.1hPa East 0.5mph /  0.8km/h 5mph /  8km/h 60.4% 0.00in /  0mm 239 W/m2
12:39 72.2 °F /  22.3 °C 57.1 °F /  13.9 °C 29.98in /  1015.1hPa Calm   3mph /  4.8km/h 59% 0.00in /  0mm 105 W/m2
12:44 72.3 °F /  22.4 °C 58.1 °F /  14.5 °C 29.97in /  1014.8hPa ENE 0.8mph /  1.3km/h 4mph /  6.4km/h 60.9% 0.00in /  0mm 232 W/m2
12:49 72.4 °F /  22.4 °C 58.2 °F /  14.6 °C 29.97in /  1014.8hPa ENE 0.7mph /  1.1km/h 4mph /  6.4km/h 61% 0.00in /  0mm 232 W/m2
12:54 72.2 °F /  22.3 °C 57.1 °F /  13.9 °C 29.97in /  1014.8hPa ENE 1mph /  1.6km/h 4mph /  6.4km/h 58.8% 0.00in /  0mm 42 W/m2
12:59 72.2 °F /  22.3 °C 57.2 °F /  14 °C 29.97in /  1014.8hPa ENE 1.4mph /  2.3km/h 5mph /  8km/h 59.2% 0.00in /  0mm 113 W/m2
13:04 72.2 °F /  22.3 °C 57.7 °F /  14.3 °C 29.97in /  1014.8hPa ENE 0.1mph /  0.2km/h 5mph /  8km/h 60.2% 0.00in /  0mm 297 W/m2
13:09 72.4 °F /  22.4 °C 57.2 °F /  14 °C 29.97in /  1014.8hPa Calm   2mph /  3.2km/h 58.9% 0.00in /  0mm 297 W/m2
13:14 72.4 °F /  22.4 °C 57.1 °F /  13.9 °C 29.97in /  1014.8hPa ENE 0.1mph /  0.2km/h 2mph /  3.2km/h 58.6% 0.00in /  0mm 197 W/m2
13:19 72.5 °F /  22.5 °C 57.9 °F /  14.4 °C 29.96in /  1014.4hPa ENE 0.9mph /  1.4km/h 5mph /  8km/h 60% 0.00in /  0mm 158 W/m2
13:24 72.6 °F /  22.6 °C 57.7 °F /  14.3 °C 29.96in /  1014.4hPa ENE 0.5mph /  0.8km/h 5mph /  8km/h 59.4% 0.00in /  0mm 146 W/m2
13:29 72.7 °F /  22.6 °C 58.1 °F /  14.5 °C 29.96in /  1014.4hPa NW 0.9mph /  1.4km/h 5mph /  8km/h 60.2% 0.00in /  0mm 114 W/m2
13:34 72.9 °F /  22.7 °C 58.1 °F /  14.5 °C 29.95in /  1014.1hPa Calm   5mph /  8km/h 59.9% 0.00in /  0mm 54 W/m2
13:39 73 °F /  22.8 °C 58.2 °F /  14.6 °C 29.95in /  1014.1hPa NE 0.7mph /  1.1km/h 4mph /  6.4km/h 59.9% 0.00in /  0mm 72 W/m2
13:44 73 °F /  22.8 °C 58 °F /  14.4 °C 29.95in /  1014.1hPa NE 1.1mph /  1.8km/h 4mph /  6.4km/h 59.3% 0.00in /  0mm 88 W/m2
13:49 73.1 °F /  22.8 °C 58.5 °F /  14.7 °C 29.94in /  1013.8hPa North 1.6mph /  2.6km/h 5mph /  8km/h 60.3% 0.00in /  0mm 35 W/m2
13:54 73.2 °F /  22.9 °C 58.1 °F /  14.5 °C 29.94in /  1013.8hPa NW 0.3mph /  0.5km/h 5mph /  8km/h 59.2% 0.00in /  0mm 39 W/m2
13:59 73.1 °F /  22.8 °C 57.1 °F /  13.9 °C 29.94in /  1013.8hPa North 0.6mph /  1km/h 5mph /  8km/h 57.3% 0.00in /  0mm 100 W/m2
14:04 73 °F /  22.8 °C 57 °F /  13.9 °C 29.94in /  1013.8hPa ENE 0.4mph /  0.6km/h 5mph /  8km/h 57.1% 0.00in /  0mm 37 W/m2
14:09 73 °F /  22.8 °C 57.5 °F /  14.2 °C 29.94in /  1013.8hPa NNW 1.5mph /  2.4km/h 5mph /  8km/h 58.3% 0.00in /  0mm 39 W/m2
14:14 73 °F /  22.8 °C 57.4 °F /  14.1 °C 29.94in /  1013.8hPa NW 0.7mph /  1.1km/h 5mph /  8km/h 58.2% 0.00in /  0mm 33 W/m2
14:19 73.1 °F /  22.8 °C 57.9 °F /  14.4 °C 29.94in /  1013.8hPa NW 0.1mph /  0.2km/h 5mph /  8km/h 59% 0.00in /  0mm 33 W/m2
14:24 73.3 °F /  22.9 °C 58 °F /  14.4 °C 29.93in /  1013.4hPa NW 0.4mph /  0.6km/h 5mph /  8km/h 58.7% 0.00in /  0mm 33 W/m2
14:29 73.3 °F /  22.9 °C 56.3 °F /  13.5 °C 29.93in /  1013.4hPa NNW 0.3mph /  0.5km/h 5mph /  8km/h 55.3% 0.00in /  0mm 37 W/m2
14:34 73.4 °F /  23 °C 56.7 °F /  13.7 °C 29.93in /  1013.4hPa North 0.2mph /  0.3km/h 5mph /  8km/h 55.8% 0.00in /  0mm 74 W/m2
14:39 73.5 °F /  23.1 °C 56.3 °F /  13.5 °C 29.93in /  1013.4hPa North 1.3mph /  2.1km/h 3mph /  4.8km/h 54.9% 0.00in /  0mm 158 W/m2
14:44 73.7 °F /  23.2 °C 56.8 °F /  13.8 °C 29.93in /  1013.4hPa Calm   3mph /  4.8km/h 55.4% 0.00in /  0mm 206 W/m2
14:46 73.9 °F /  23.3 °C 56.8 °F /  13.8 °C 29.93in /  1013.4hPa Calm   3mph /  4.8km/h 55% 0.00in /  0mm 209 W/m2
15:00 74.9 °F /  23.8 °C 56.6 °F /  13.7 °C 29.93in /  1013.4hPa Calm   3mph /  4.8km/h 53% 0.00in /  0mm 114 W/m2
15:30 75.1 °F /  23.9 °C 56.3 °F /  13.5 °C 29.92in /  1013.1hPa Calm     52% 0.00in /  0mm 134 W/m2
16:04 74.7 °F /  23.7 °C 56.7 °F /  13.7 °C 29.90in /  1012.4hPa Calm     53.6% 0.00in /  0mm 32 W/m2
16:09 74.6 °F /  23.7 °C 57.5 °F /  14.2 °C 29.90in /  1012.4hPa Calm     55.2% 0.00in /  0mm 32 W/m2
16:14 74.6 °F /  23.7 °C 58.3 °F /  14.6 °C 29.90in /  1012.4hPa Calm     56.7% 0.00in /  0mm 32 W/m2
16:19 74.7 °F /  23.7 °C 58.1 °F /  14.5 °C 29.91in /  1012.8hPa NNE 0.2mph /  0.3km/h 2mph /  3.2km/h 56.3% 0.00in /  0mm 30 W/m2
16:24 74.7 °F /  23.7 °C 58.3 °F /  14.6 °C 29.90in /  1012.4hPa Calm   2mph /  3.2km/h 56.6% 0.00in /  0mm 28 W/m2
16:29 74.8 °F /  23.8 °C 58.2 °F /  14.6 °C 29.90in /  1012.4hPa NNE 0.3mph /  0.5km/h 2mph /  3.2km/h 56.3% 0.00in /  0mm 28 W/m2
16:34 74.7 °F /  23.7 °C 57.9 °F /  14.4 °C 29.90in /  1012.4hPa NNE 0.3mph /  0.5km/h 4mph /  6.4km/h 55.8% 0.00in /  0mm 26 W/m2
16:39 74.7 °F /  23.7 °C 58.3 °F /  14.6 °C 29.90in /  1012.4hPa NNE 0.5mph /  0.8km/h 4mph /  6.4km/h 56.6% 0.00in /  0mm 28 W/m2
16:44 74.7 °F /  23.7 °C 58.1 °F /  14.5 °C 29.90in /  1012.4hPa Calm   4mph /  6.4km/h 56.3% 0.00in /  0mm 28 W/m2
16:49 74.6 °F /  23.7 °C 58.4 °F /  14.7 °C 29.90in /  1012.4hPa NNE 0.1mph /  0.2km/h 4mph /  6.4km/h 56.9% 0.00in /  0mm 26 W/m2
16:54 74.6 °F /  23.7 °C 59.1 °F /  15.1 °C 29.90in /  1012.4hPa Calm   4mph /  6.4km/h 58.5% 0.00in /  0mm 26 W/m2
16:59 74.6 °F /  23.7 °C 59.5 °F /  15.3 °C 29.90in /  1012.4hPa NNE 0.6mph /  1km/h 4mph /  6.4km/h 59.4% 0.00in /  0mm 26 W/m2
17:04 74.5 °F /  23.6 °C 59.5 °F /  15.3 °C 29.90in /  1012.4hPa NNE 0.2mph /  0.3km/h 4mph /  6.4km/h 59.5% 0.00in /  0mm 25 W/m2
17:09 74.4 °F /  23.6 °C 59 °F /  15 °C 29.90in /  1012.4hPa Calm   2mph /  3.2km/h 58.7% 0.00in /  0mm 25 W/m2
17:14 74.2 °F /  23.4 °C 58.6 °F /  14.8 °C 29.90in /  1012.4hPa NNE 0.1mph /  0.2km/h 2mph /  3.2km/h 58.2% 0.00in /  0mm 23 W/m2
17:19 74.1 °F /  23.4 °C 58.9 °F /  14.9 °C 29.90in /  1012.4hPa Calm   2mph /  3.2km/h 59% 0.00in /  0mm 21 W/m2
17:24 74 °F /  23.3 °C 58.6 °F /  14.8 °C 29.90in /  1012.4hPa Calm   2mph /  3.2km/h 58.6% 0.00in /  0mm 21 W/m2
17:29 73.8 °F /  23.2 °C 58.6 °F /  14.8 °C 29.89in /  1012.1hPa Calm   2mph /  3.2km/h 59% 0.00in /  0mm 26 W/m2
17:34 73.7 °F /  23.2 °C 58.5 °F /  14.7 °C 29.89in /  1012.1hPa Calm   2mph /  3.2km/h 59% 0.00in /  0mm 28 W/m2
17:39 73.6 °F /  23.1 °C 58.6 °F /  14.8 °C 29.89in /  1012.1hPa NNE 0.2mph /  0.3km/h 2mph /  3.2km/h 59.5% 0.00in /  0mm 28 W/m2
17:44 73.5 °F /  23.1 °C 59 °F /  15 °C 29.89in /  1012.1hPa Calm   2mph /  3.2km/h 60.6% 0.00in /  0mm 26 W/m2
17:49 73.4 °F /  23 °C 59 °F /  15 °C 29.89in /  1012.1hPa NNE 0.2mph /  0.3km/h 2mph /  3.2km/h 60.8% 0.00in /  0mm 25 W/m2
17:54 73.3 °F /  22.9 °C 59.3 °F /  15.2 °C 29.89in /  1012.1hPa Calm   2mph /  3.2km/h 61.7% 0.00in /  0mm 21 W/m2
17:59 73.1 °F /  22.8 °C 59 °F /  15 °C 29.89in /  1012.1hPa Calm   2mph /  3.2km/h 61.2% 0.00in /  0mm 21 W/m2
18:04 73 °F /  22.8 °C 59.5 °F /  15.3 °C 29.88in /  1011.7hPa Calm   2mph /  3.2km/h 62.7% 0.00in /  0mm 14 W/m2
18:09 72.8 °F /  22.7 °C 59.6 °F /  15.3 °C 29.88in /  1011.7hPa Calm     63.3% 0.00in /  0mm 12 W/m2
18:14 72.6 °F /  22.6 °C 59.7 °F /  15.4 °C 29.88in /  1011.7hPa Calm     64% 0.00in /  0mm 11 W/m2
18:19 72.3 °F /  22.4 °C 59.5 °F /  15.3 °C 29.88in /  1011.7hPa Calm     64% 0.00in /  0mm 9 W/m2
18:24 72.1 °F /  22.3 °C 59.4 °F /  15.2 °C 29.88in /  1011.7hPa Calm     64.3% 0.00in /  0mm 7 W/m2
18:29 71.8 °F /  22.1 °C 59.7 °F /  15.4 °C 29.88in /  1011.7hPa Calm     65.7% 0.00in /  0mm 5 W/m2
18:34 71.4 °F /  21.9 °C 59.5 °F /  15.3 °C 29.88in /  1011.7hPa Calm     66% 0.00in /  0mm 0 W/m2
18:39 71.1 °F /  21.7 °C 59.4 °F /  15.2 °C 29.88in /  1011.7hPa Calm     66.5% 0.00in /  0mm 0 W/m2
18:44 70.8 °F /  21.6 °C 59.3 °F /  15.2 °C 29.87in /  1011.4hPa Calm     67% 0.00in /  0mm 0 W/m2
18:49 70.5 °F /  21.4 °C 59.3 °F /  15.2 °C 29.87in /  1011.4hPa Calm     67.8% 0.00in /  0mm 0 W/m2
18:54 70.1 °F /  21.2 °C 59.7 °F /  15.4 °C 29.87in /  1011.4hPa Calm     69.4% 0.00in /  0mm 0 W/m2
18:59 69.8 °F /  21 °C 59.9 °F /  15.5 °C 29.88in /  1011.7hPa Calm     70.9% 0.00in /  0mm 0 W/m2
19:04 69.4 °F /  20.8 °C 60 °F /  15.6 °C 29.88in /  1011.7hPa Calm     72.2% 0.00in /  0mm 0 W/m2
19:09 69 °F /  20.6 °C 60 °F /  15.6 °C 29.88in /  1011.7hPa Calm     73% 0.00in /  0mm 0 W/m2
19:14 68.6 °F /  20.3 °C 59.6 °F /  15.3 °C 29.88in /  1011.7hPa Calm     73% 0.00in /  0mm 0 W/m2
19:19 68.2 °F /  20.1 °C 59.4 °F /  15.2 °C 29.88in /  1011.7hPa NNE 0.1mph /  0.2km/h 2mph /  3.2km/h 73.5% 0.00in /  0mm 0 W/m2
19:24 67.9 °F /  19.9 °C 59.3 °F /  15.2 °C 29.88in /  1011.7hPa Calm   2mph /  3.2km/h 74.1% 0.00in /  0mm 0 W/m2
19:29 67.6 °F /  19.8 °C 59.4 °F /  15.2 °C 29.88in /  1011.7hPa Calm   2mph /  3.2km/h 75% 0.00in /  0mm 0 W/m2
19:34 67.3 °F /  19.6 °C 59.3 °F /  15.2 °C 29.87in /  1011.4hPa Calm   2mph /  3.2km/h 75.7% 0.00in /  0mm 0 W/m2
19:39 66.9 °F /  19.4 °C 59.5 °F /  15.3 °C 29.87in /  1011.4hPa Calm     77% 0.00in /  0mm 0 W/m2
19:44 66.6 °F /  19.2 °C 59.5 °F /  15.3 °C 29.87in /  1011.4hPa Calm     77.9% 0.00in /  0mm 0 W/m2
19:49 66.3 °F /  19.1 °C 59.3 °F /  15.2 °C 29.87in /  1011.4hPa Calm     78% 0.00in /  0mm 0 W/m2
19:54 66.1 °F /  18.9 °C 59.2 °F /  15.1 °C 29.87in /  1011.4hPa Calm     78.5% 0.00in /  0mm 0 W/m2
19:59 65.8 °F /  18.8 °C 59.2 °F /  15.1 °C 29.87in /  1011.4hPa Calm     79.3% 0.00in /  0mm 0 W/m2
20:09 65.4 °F /  18.6 °C 59.3 °F /  15.2 °C 29.87in /  1011.4hPa Calm     80.8% 0.00in /  0mm 0 W/m2
20:14 65.1 °F /  18.4 °C 59.1 °F /  15.1 °C 29.87in /  1011.4hPa Calm     81% 0.00in /  0mm 0 W/m2
20:19 64.9 °F /  18.3 °C 59.2 °F /  15.1 °C 29.87in /  1011.4hPa Calm     81.7% 0.00in /  0mm 0 W/m2
20:24 64.8 °F /  18.2 °C 59.2 °F /  15.1 °C 29.87in /  1011.4hPa Calm     82% 0.00in /  0mm 0 W/m2
20:29 64.6 °F /  18.1 °C 59.2 °F /  15.1 °C 29.87in /  1011.4hPa Calm     82.5% 0.00in /  0mm 0 W/m2
20:34 64.4 °F /  18 °C 59.1 °F /  15.1 °C 29.87in /  1011.4hPa Calm     83% 0.00in /  0mm 0 W/m2
20:39 64.2 °F /  17.9 °C 59.1 °F /  15.1 °C 29.87in /  1011.4hPa Calm     83.3% 0.00in /  0mm 0 W/m2
20:44 64 °F /  17.8 °C 59.1 °F /  15.1 °C 29.87in /  1011.4hPa Calm     84% 0.00in /  0mm 0 W/m2
20:49 63.9 °F /  17.7 °C 58.9 °F /  14.9 °C 29.87in /  1011.4hPa Calm     84% 0.00in /  0mm 0 W/m2
20:54 63.7 °F /  17.6 °C 59.1 °F /  15.1 °C 29.87in /  1011.4hPa Calm     85% 0.00in /  0mm 0 W/m2
20:59 63.5 °F /  17.5 °C 58.9 °F /  14.9 °C 29.87in /  1011.4hPa Calm     85% 0.00in /  0mm 0 W/m2
21:04 63.4 °F /  17.4 °C 58.9 °F /  14.9 °C 29.87in /  1011.4hPa Calm     85.3% 0.00in /  0mm 0 W/m2
21:09 63.2 °F /  17.3 °C 59 °F /  15 °C 29.87in /  1011.4hPa Calm     86% 0.00in /  0mm 0 W/m2
21:14 63.2 °F /  17.3 °C 58.9 °F /  14.9 °C 29.87in /  1011.4hPa Calm     86% 0.00in /  0mm 0 W/m2
21:19 63.1 °F /  17.3 °C 58.9 °F /  14.9 °C 29.87in /  1011.4hPa Calm     86.2% 0.00in /  0mm 0 W/m2
21:24 63 °F /  17.2 °C 59.1 °F /  15.1 °C 29.87in /  1011.4hPa Calm     87% 0.00in /  0mm 0 W/m2
21:29 62.9 °F /  17.2 °C 59 °F /  15 °C 29.87in /  1011.4hPa Calm     87% 0.00in /  0mm 0 W/m2
21:34 62.9 °F /  17.2 °C 59.2 °F /  15.1 °C 29.86in /  1011.1hPa Calm     87.8% 0.00in /  0mm 0 W/m2
21:39 62.9 °F /  17.2 °C 59.3 °F /  15.2 °C 29.86in /  1011.1hPa Calm     88% 0.00in /  0mm 0 W/m2
21:44 62.9 °F /  17.2 °C 59.3 °F /  15.2 °C 29.86in /  1011.1hPa Calm     88% 0.00in /  0mm 0 W/m2
21:49 62.8 °F /  17.1 °C 59.2 °F /  15.1 °C 29.86in /  1011.1hPa Calm     88% 0.00in /  0mm 0 W/m2
21:54 62.8 °F /  17.1 °C 59.4 °F /  15.2 °C 29.87in /  1011.4hPa Calm     88.6% 0.00in /  0mm 0 W/m2
21:59 62.7 °F /  17.1 °C 59.4 °F /  15.2 °C 29.87in /  1011.4hPa Calm     89% 0.00in /  0mm 0 W/m2
22:04 62.7 °F /  17.1 °C 59.4 °F /  15.2 °C 29.86in /  1011.1hPa Calm     89% 0.00in /  0mm 0 W/m2
22:09 62.7 °F /  17.1 °C 59.4 °F /  15.2 °C 29.86in /  1011.1hPa Calm     89% 0.00in /  0mm 0 W/m2
22:14 62.7 °F /  17.1 °C 59.4 °F /  15.2 °C 29.86in /  1011.1hPa Calm     89% 0.00in /  0mm 0 W/m2
22:19 62.6 °F /  17 °C 59.3 °F /  15.2 °C 29.86in /  1011.1hPa Calm     89% 0.00in /  0mm 0 W/m2
22:24 62.6 °F /  17 °C 59.5 °F /  15.3 °C 29.86in /  1011.1hPa Calm     89.7% 0.00in /  0mm 0 W/m2
22:29 62.6 °F /  17 °C 59.6 °F /  15.3 °C 29.86in /  1011.1hPa Calm     90% 0.00in /  0mm 0 W/m2
22:34 62.6 °F /  17 °C 59.6 °F /  15.3 °C 29.86in /  1011.1hPa Calm     90% 0.00in /  0mm 0 W/m2
22:39 62.6 °F /  17 °C 59.6 °F /  15.3 °C 29.85in /  1010.7hPa Calm     90% 0.00in /  0mm 0 W/m2
22:44 62.6 °F /  17 °C 59.6 °F /  15.3 °C 29.85in /  1010.7hPa Calm     90% 0.00in /  0mm 0 W/m2
22:49 62.5 °F /  16.9 °C 59.4 °F /  15.2 °C 29.85in /  1010.7hPa Calm     89.7% 0.00in /  0mm 0 W/m2
22:54 62.5 °F /  16.9 °C 59.2 °F /  15.1 °C 29.85in /  1010.7hPa Calm     89% 0.00in /  0mm 0 W/m2
22:59 62.5 °F /  16.9 °C 59.2 °F /  15.1 °C 29.85in /  1010.7hPa Calm     89% 0.00in /  0mm 0 W/m2
23:04 62.5 °F /  16.9 °C 59.2 °F /  15.1 °C 29.85in /  1010.7hPa Calm     89% 0.00in /  0mm 0 W/m2
23:09 62.4 °F /  16.9 °C 59.1 °F /  15.1 °C 29.84in /  1010.4hPa Calm     89% 0.00in /  0mm 0 W/m2
23:14 62.3 °F /  16.8 °C 59 °F /  15 °C 29.85in /  1010.7hPa Calm     89% 0.00in /  0mm 0 W/m2
23:19 62.3 °F /  16.8 °C 59 °F /  15 °C 29.84in /  1010.4hPa Calm     89% 0.00in /  0mm 0 W/m2
23:24 62.2 °F /  16.8 °C 58.9 °F /  14.9 °C 29.85in /  1010.7hPa Calm     89% 0.00in /  0mm 0 W/m2
23:28 62.1 °F /  16.7 °C 58.8 °F /  14.9 °C 29.85in /  1010.7hPa Calm     89% 0.00in /  0mm 0 W/m2
Hartford County Weather
Compliments of Weather Underground - 4 mb